createdAt,value
2018-09-01T00:00:25.913Z,12.60
2018-09-01T00:02:54.200Z,13.13
2018-09-01T00:05:29.008Z,12.50
2018-09-01T00:07:57.321Z,11.87
2018-09-01T00:10:25.556Z,11.07
2018-09-01T00:12:53.797Z,11.13
2018-09-01T00:15:22.179Z,10.77
2018-09-01T00:17:50.409Z,11.33
2018-09-01T00:20:18.671Z,11.50
2018-09-01T00:22:46.920Z,11.63
2018-09-01T00:25:15.144Z,12.23
2018-09-01T00:27:43.372Z,11.70
2018-09-01T00:30:11.620Z,12.07
2018-09-01T00:32:39.907Z,13.00
2018-09-01T00:35:08.147Z,12.50
2018-09-01T00:37:41.848Z,12.53
2018-09-01T00:40:10.131Z,12.27
2018-09-01T00:42:38.351Z,12.57
2018-09-01T00:45:06.613Z,12.97
2018-09-01T00:47:34.840Z,13.17
2018-09-01T00:50:03.172Z,13.50
2018-09-01T00:52:31.394Z,12.33
2018-09-01T00:54:59.616Z,13.43
2018-09-01T00:57:27.871Z,13.63
2018-09-01T00:59:56.140Z,13.30
2018-09-01T01:02:24.416Z,13.97
2018-09-01T01:04:52.639Z,12.87
2018-09-01T01:07:20.883Z,13.17
2018-09-01T01:09:49.156Z,12.43
2018-09-01T01:12:17.380Z,13.23
2018-09-01T01:14:45.639Z,12.90
2018-09-01T01:17:13.888Z,13.33
2018-09-01T01:19:42.192Z,13.00
2018-09-01T01:22:10.428Z,12.87
2018-09-01T01:24:38.682Z,11.73
2018-09-01T01:27:06.972Z,12.63
2018-09-01T01:29:35.224Z,13.37
2018-09-01T01:32:03.502Z,12.50
2018-09-01T01:34:31.737Z,12.10
2018-09-01T01:36:59.963Z,12.43
2018-09-01T01:39:28.229Z,12.80
2018-09-01T01:41:56.513Z,11.90
2018-09-01T01:44:24.811Z,11.87
2018-09-01T01:46:53.067Z,12.47
2018-09-01T01:49:21.348Z,12.07
2018-09-01T01:51:49.620Z,12.73
2018-09-01T01:54:17.851Z,11.50
2018-09-01T01:56:46.101Z,11.87
2018-09-01T01:59:14.345Z,10.93
2018-09-01T02:01:42.578Z,11.43
2018-09-01T02:04:10.845Z,12.37
2018-09-01T02:06:39.127Z,12.23
2018-09-01T02:09:07.394Z,11.67
2018-09-01T02:11:35.633Z,12.90
2018-09-01T02:14:03.847Z,11.70
2018-09-01T02:16:32.289Z,11.40
2018-09-01T02:19:00.574Z,11.30
2018-09-01T02:21:28.812Z,12.47
2018-09-01T02:23:57.056Z,11.67
2018-09-01T02:26:25.298Z,11.37
2018-09-01T02:28:53.567Z,11.73
2018-09-01T02:31:21.812Z,11.23
2018-09-01T02:33:50.052Z,12.47
2018-09-01T02:36:18.290Z,11.80
2018-09-01T02:38:46.527Z,11.90
2018-09-01T02:41:14.784Z,10.27
2018-09-01T02:43:43.045Z,11.70
2018-09-01T02:46:11.306Z,12.13
2018-09-01T02:48:39.538Z,11.23
2018-09-01T02:51:07.807Z,11.37
2018-09-01T02:53:36.106Z,11.10
2018-09-01T02:56:04.343Z,12.20
2018-09-01T02:58:32.590Z,11.60
2018-09-01T03:01:06.271Z,11.20
2018-09-01T03:03:34.511Z,12.00
2018-09-01T03:06:02.731Z,11.80
2018-09-01T03:08:30.974Z,11.43
2018-09-01T03:10:59.248Z,11.50
2018-09-01T03:13:27.493Z,10.93
2018-09-01T03:15:55.744Z,10.43
2018-09-01T03:18:23.999Z,11.83
2018-09-01T03:20:52.321Z,10.73
2018-09-01T03:23:20.595Z,10.93
2018-09-01T03:25:48.831Z,10.80
2018-09-01T03:28:17.096Z,10.50
2018-09-01T03:30:45.351Z,10.10
2018-09-01T03:33:13.603Z,10.23
2018-09-01T03:35:41.892Z,9.73
2018-09-01T03:38:10.138Z,10.83
2018-09-01T03:40:38.375Z,10.50
2018-09-01T03:43:06.621Z,9.77
2018-09-01T03:45:34.865Z,10.50
2018-09-01T03:48:03.178Z,10.57
2018-09-01T03:50:31.428Z,10.47
2018-09-01T03:52:59.655Z,9.93
2018-09-01T03:55:27.921Z,10.50
2018-09-01T03:57:56.217Z,10.80
2018-09-01T04:00:26.967Z,10.93
2018-09-01T04:02:55.943Z,10.90
2018-09-01T04:05:24.175Z,10.93
2018-09-01T04:07:52.487Z,10.70
2018-09-01T04:10:20.724Z,11.57
2018-09-01T04:12:49.155Z,12.87
2018-09-01T04:15:17.383Z,12.47
2018-09-01T04:17:45.728Z,13.20
2018-09-01T04:20:13.970Z,12.60
2018-09-01T04:22:42.194Z,12.93
2018-09-01T04:25:10.466Z,13.40
2018-09-01T04:27:38.714Z,12.17
2018-09-01T04:30:06.984Z,12.33
2018-09-01T04:32:35.236Z,12.13
2018-09-01T04:35:03.482Z,10.90
2018-09-01T04:37:31.785Z,11.70
2018-09-01T04:40:00.028Z,10.50
2018-09-01T04:42:28.257Z,9.30
2018-09-01T04:44:56.486Z,9.63
2018-09-01T04:47:24.707Z,9.87
2018-09-01T04:49:52.972Z,9.53
2018-09-01T04:52:21.216Z,8.70
2018-09-01T04:54:49.479Z,9.33
2018-09-01T04:57:17.731Z,9.17
2018-09-01T04:59:45.974Z,9.57
2018-09-01T05:02:14.239Z,10.13
2018-09-01T05:04:42.485Z,8.70
2018-09-01T05:07:10.731Z,9.97
2018-09-01T05:09:38.965Z,10.03
2018-09-01T05:12:07.235Z,9.10
2018-09-01T05:14:35.499Z,8.93
2018-09-01T05:17:03.776Z,9.93
2018-09-01T05:19:32.023Z,8.83
2018-09-01T05:22:00.260Z,9.73
2018-09-01T05:24:28.518Z,9.60
2018-09-01T05:26:56.816Z,9.77
2018-09-01T05:29:25.134Z,10.50
2018-09-01T05:31:53.430Z,11.27
2018-09-01T05:34:21.733Z,11.33
2018-09-01T05:36:49.980Z,11.40
2018-09-01T05:39:18.278Z,12.27
2018-09-01T05:41:46.503Z,11.83
2018-09-01T05:44:14.735Z,12.27
2018-09-01T05:46:42.964Z,11.27
2018-09-01T05:49:11.208Z,12.23
2018-09-01T05:51:39.505Z,11.57
2018-09-01T05:54:07.735Z,13.20
2018-09-01T05:56:35.971Z,12.87
2018-09-01T05:59:04.307Z,13.80
2018-09-01T06:01:32.584Z,14.23
2018-09-01T06:04:00.912Z,13.27
2018-09-01T06:06:29.185Z,13.90
2018-09-01T06:08:57.443Z,13.27
2018-09-01T06:11:25.706Z,13.77
2018-09-01T06:13:53.967Z,12.77
2018-09-01T06:16:22.248Z,11.87
2018-09-01T06:18:50.484Z,11.27
2018-09-01T06:21:18.753Z,11.20
2018-09-01T06:23:46.993Z,10.83
2018-09-01T06:26:15.245Z,12.10
2018-09-01T06:28:47.302Z,11.20
2018-09-01T06:31:16.540Z,10.90
2018-09-01T06:33:44.828Z,11.13
2018-09-01T06:36:13.090Z,11.30
2018-09-01T06:38:41.330Z,11.20
2018-09-01T06:41:09.583Z,11.50
2018-09-01T06:43:37.865Z,11.97
2018-09-01T06:46:06.256Z,11.23
2018-09-01T06:48:34.520Z,11.73
2018-09-01T06:51:02.765Z,12.97
2018-09-01T06:53:31.011Z,12.73
2018-09-01T06:55:59.287Z,12.43
2018-09-01T06:58:27.560Z,12.07
2018-09-01T07:00:55.848Z,11.60
2018-09-01T07:03:24.116Z,11.93
2018-09-01T07:05:52.360Z,12.87
2018-09-01T07:08:20.625Z,11.93
2018-09-01T07:10:48.919Z,12.23
2018-09-01T07:13:17.180Z,11.73
2018-09-01T07:15:45.423Z,11.67
2018-09-01T07:18:13.674Z,12.93
2018-09-01T07:20:41.917Z,11.00
2018-09-01T07:23:10.201Z,11.50
2018-09-01T07:25:38.478Z,11.43
2018-09-01T07:28:06.992Z,10.80
2018-09-01T07:30:35.728Z,11.00
2018-09-01T07:33:03.760Z,11.13
2018-09-01T07:35:32.039Z,11.73
2018-09-01T07:38:00.268Z,10.83
2018-09-01T07:40:28.543Z,10.77
2018-09-01T07:42:56.805Z,10.83
2018-09-01T07:45:25.103Z,10.20
2018-09-01T07:47:53.403Z,10.07
2018-09-01T07:50:21.635Z,9.07
2018-09-01T07:52:49.914Z,9.70
2018-09-01T07:55:18.125Z,9.53
2018-09-01T07:57:46.955Z,8.57
2018-09-01T08:00:15.234Z,8.90
2018-09-01T08:02:43.526Z,8.80
2018-09-01T08:05:11.763Z,8.13
2018-09-01T08:07:40.044Z,7.67
2018-09-01T08:10:08.687Z,8.87
2018-09-01T08:12:36.939Z,8.37
2018-09-01T08:15:05.873Z,8.90
2018-09-01T08:17:34.137Z,8.80
2018-09-01T08:20:02.403Z,7.57
2018-09-01T08:22:30.663Z,8.30
2018-09-01T08:24:59.002Z,7.57
2018-09-01T08:27:27.298Z,8.97
2018-09-01T08:29:55.540Z,8.40
2018-09-01T08:32:23.803Z,8.10
2018-09-01T08:34:52.027Z,7.97
2018-09-01T08:37:20.699Z,8.83
2018-09-01T08:39:48.958Z,8.87
2018-09-01T08:42:17.200Z,9.23
2018-09-01T08:44:45.397Z,8.70
2018-09-01T08:47:13.596Z,9.57
2018-09-01T08:49:41.788Z,8.73
2018-09-01T08:52:10.145Z,8.70
2018-09-01T08:54:38.339Z,9.07
2018-09-01T08:57:06.608Z,9.00
2018-09-01T08:59:35.792Z,9.37
2018-09-01T09:02:04.415Z,8.50
2018-09-01T09:04:32.651Z,8.93
2018-09-01T09:07:00.844Z,9.67
2018-09-01T09:09:29.088Z,9.17
2018-09-01T09:11:57.292Z,10.03
2018-09-01T09:14:25.545Z,8.87
2018-09-01T09:16:53.923Z,9.87
2018-09-01T09:19:22.219Z,9.50
2018-09-01T09:21:50.721Z,9.03
2018-09-01T09:24:18.919Z,8.77
2018-09-01T09:26:47.342Z,9.40
2018-09-01T09:29:15.544Z,9.30
2018-09-01T09:31:43.749Z,9.07
2018-09-01T09:34:12.053Z,8.83
2018-09-01T09:36:40.288Z,8.60
2018-09-01T09:39:09.519Z,8.37
2018-09-01T09:41:37.736Z,8.70
2018-09-01T09:44:06.251Z,8.37
2018-09-01T09:46:34.781Z,8.13
2018-09-01T09:49:03.070Z,8.17
2018-09-01T09:51:31.299Z,8.80
2018-09-01T09:53:59.527Z,10.37
2018-09-01T09:56:27.759Z,8.90
2018-09-01T09:58:56.059Z,9.33
2018-09-01T10:01:33.564Z,10.97
2018-09-01T10:04:01.943Z,9.80
2018-09-01T10:06:30.313Z,9.67
2018-09-01T10:08:58.511Z,9.50
2018-09-01T10:11:26.761Z,8.77
2018-09-01T10:13:54.960Z,9.23
2018-09-01T10:16:23.209Z,9.30
2018-09-01T10:18:51.427Z,9.63
2018-09-01T10:21:19.679Z,9.30
2018-09-01T10:23:47.891Z,8.30
2018-09-01T10:26:16.139Z,8.33
2018-09-01T10:28:44.451Z,8.90
2018-09-01T10:31:12.782Z,8.57
2018-09-01T10:33:40.990Z,9.20
2018-09-01T10:36:09.175Z,9.33
2018-09-01T10:38:37.430Z,8.23
2018-09-01T10:41:05.744Z,10.10
2018-09-01T10:43:33.951Z,8.10
2018-09-01T10:46:02.237Z,7.87
2018-09-01T10:48:30.456Z,8.33
2018-09-01T10:50:58.690Z,7.63
2018-09-01T10:53:27.443Z,8.23
2018-09-01T10:55:55.636Z,7.53
2018-09-01T10:58:23.839Z,7.50
2018-09-01T11:00:52.080Z,7.37
2018-09-01T11:03:20.407Z,7.13
2018-09-01T11:05:48.703Z,7.57
2018-09-01T11:08:16.920Z,7.60
2018-09-01T11:10:45.696Z,8.53
2018-09-01T11:13:13.882Z,8.13
2018-09-01T11:15:42.113Z,8.33
2018-09-01T11:18:10.343Z,7.93
2018-09-01T11:20:38.546Z,8.27
2018-09-01T11:23:06.807Z,8.33
2018-09-01T11:25:35.006Z,7.87
2018-09-01T11:28:03.609Z,8.57
2018-09-01T11:30:31.783Z,8.10
2018-09-01T11:33:01.338Z,7.70
2018-09-01T11:35:30.143Z,8.27
2018-09-01T11:37:58.357Z,7.43
2018-09-01T11:40:26.546Z,9.10
2018-09-01T11:42:54.864Z,8.60
2018-09-01T11:45:23.011Z,7.57
2018-09-01T11:47:51.255Z,10.83
2018-09-01T11:50:19.449Z,11.73
2018-09-01T11:52:47.642Z,9.27
2018-09-01T11:55:15.895Z,8.50
2018-09-01T11:57:44.170Z,7.77
2018-09-01T12:00:12.973Z,8.47
2018-09-01T12:02:41.159Z,10.30
2018-09-01T12:05:09.356Z,8.80
2018-09-01T12:07:37.590Z,9.37
2018-09-01T12:10:06.367Z,9.43
2018-09-01T12:12:34.628Z,8.93
2018-09-01T12:15:03.022Z,10.13
2018-09-01T12:17:31.293Z,9.17
2018-09-01T12:20:00.493Z,11.27
2018-09-01T12:22:29.064Z,9.47
2018-09-01T12:24:57.611Z,9.43
2018-09-01T12:27:25.896Z,10.43
2018-09-01T12:29:54.156Z,9.83
2018-09-01T12:32:22.693Z,8.60
2018-09-01T12:34:50.895Z,7.83
2018-09-01T12:37:19.096Z,8.10
2018-09-01T12:39:47.311Z,8.40
2018-09-01T12:42:15.494Z,6.50
2018-09-01T12:44:43.727Z,7.97
2018-09-01T12:47:12.835Z,8.00
2018-09-01T12:49:41.047Z,7.77
2018-09-01T12:52:09.235Z,7.03
2018-09-01T12:54:37.435Z,6.97
2018-09-01T12:57:05.833Z,6.90
2018-09-01T12:59:34.123Z,7.50
2018-09-01T13:02:02.907Z,7.20
2018-09-01T13:04:31.566Z,6.23
2018-09-01T13:06:59.772Z,6.90
2018-09-01T13:09:28.088Z,6.77
2018-09-01T13:11:56.292Z,6.83
2018-09-01T13:14:24.478Z,6.97
2018-09-01T13:16:52.678Z,6.90
2018-09-01T13:19:21.026Z,6.57
2018-09-01T13:21:49.281Z,6.90
2018-09-01T13:24:17.500Z,7.13
2018-09-01T13:26:45.827Z,6.87
2018-09-01T13:29:14.314Z,7.00
2018-09-01T13:31:42.591Z,7.23
2018-09-01T13:34:11.006Z,7.40
2018-09-01T13:36:39.189Z,7.80
2018-09-01T13:39:09.471Z,7.40
2018-09-01T13:41:37.668Z,7.23
2018-09-01T13:44:05.871Z,7.37
2018-09-01T13:46:34.243Z,7.23
2018-09-01T13:49:02.535Z,7.70
2018-09-01T13:51:30.958Z,8.63
2018-09-01T13:53:59.264Z,8.67
2018-09-01T13:56:27.547Z,7.63
2018-09-01T13:58:55.854Z,7.57
2018-09-01T14:01:24.190Z,8.17
2018-09-01T14:03:52.491Z,9.07
2018-09-01T14:06:27.463Z,8.80
2018-09-01T14:08:55.696Z,8.67
2018-09-01T14:11:24.065Z,9.73
2018-09-01T14:13:52.314Z,9.97
2018-09-01T14:16:20.583Z,10.43
2018-09-01T14:18:48.906Z,8.17
2018-09-01T14:21:17.207Z,8.67
2018-09-01T14:23:45.512Z,8.07
2018-09-01T14:26:13.823Z,8.50
2018-09-01T14:28:42.067Z,7.90
2018-09-01T14:31:10.325Z,8.07
2018-09-01T14:33:38.613Z,7.90
2018-09-01T14:36:07.036Z,8.20
2018-09-01T14:38:35.437Z,8.73
2018-09-01T14:41:03.683Z,8.80
2018-09-01T14:43:31.930Z,8.50
2018-09-01T14:46:00.207Z,7.83
2018-09-01T14:48:28.547Z,8.17
2018-09-01T14:50:56.877Z,8.07
2018-09-01T14:53:25.226Z,8.33
2018-09-01T14:55:53.491Z,8.47
2018-09-01T14:58:21.789Z,8.17
2018-09-01T15:00:50.070Z,8.43
2018-09-01T15:03:18.340Z,8.20
2018-09-01T15:05:46.609Z,8.30
2018-09-01T15:08:14.849Z,8.20
2018-09-01T15:10:43.138Z,8.67
2018-09-01T15:13:11.444Z,8.67
2018-09-01T15:15:39.728Z,7.90
2018-09-01T15:18:07.988Z,8.63
2018-09-01T15:20:36.400Z,8.93
2018-09-01T15:23:04.683Z,8.03
2018-09-01T15:25:32.982Z,8.50
2018-09-01T15:28:01.280Z,8.17
2018-09-01T15:30:29.574Z,8.13
2018-09-01T15:32:57.975Z,8.20
2018-09-01T15:35:26.492Z,8.43
2018-09-01T15:37:54.691Z,8.60
2018-09-01T15:40:22.965Z,8.87
2018-09-01T15:42:51.304Z,8.10
2018-09-01T15:45:19.621Z,7.70
2018-09-01T15:47:47.972Z,7.60
2018-09-01T15:50:16.242Z,7.50
2018-09-01T15:52:44.491Z,7.87
2018-09-01T15:55:12.772Z,7.93
2018-09-01T15:57:41.144Z,8.70
2018-09-01T16:00:10.100Z,7.53
2018-09-01T16:02:38.372Z,8.23
2018-09-01T16:05:06.677Z,8.70
2018-09-01T16:07:34.985Z,8.70
2018-09-01T16:10:03.336Z,8.93
2018-09-01T16:12:31.655Z,8.13
2018-09-01T16:14:59.943Z,8.27
2018-09-01T16:17:28.243Z,7.90
2018-09-01T16:19:56.531Z,8.03
2018-09-01T16:22:24.798Z,9.23
2018-09-01T16:24:53.144Z,9.57
2018-09-01T16:27:21.431Z,10.37
2018-09-01T16:29:49.712Z,13.37
2018-09-01T16:32:17.943Z,17.27
2018-09-01T16:34:46.336Z,17.93
2018-09-01T16:37:14.867Z,19.40
2018-09-01T16:39:43.179Z,23.03
2018-09-01T16:42:11.475Z,22.03
2018-09-01T16:44:39.752Z,25.37
2018-09-01T16:47:08.022Z,23.07
2018-09-01T16:49:36.339Z,23.50
2018-09-01T16:52:04.732Z,22.37
2018-09-01T16:54:33.020Z,21.90
2018-09-01T16:57:01.333Z,23.53
2018-09-01T16:59:29.779Z,20.87
2018-09-01T17:01:58.067Z,25.73
2018-09-01T17:04:26.336Z,25.53
2018-09-01T17:06:54.614Z,26.23
2018-09-01T17:09:22.956Z,24.77
2018-09-01T17:11:51.202Z,25.10
2018-09-01T17:14:19.571Z,25.23
2018-09-01T17:16:47.850Z,23.87
2018-09-01T17:19:16.114Z,24.53
2018-09-01T17:21:44.478Z,24.50
2018-09-01T17:24:12.740Z,26.97
2018-09-01T17:26:41.166Z,23.60
2018-09-01T17:29:09.469Z,26.23
2018-09-01T17:31:37.806Z,26.07
2018-09-01T17:34:06.038Z,25.80
2018-09-01T17:36:34.329Z,25.83
2018-09-01T17:39:02.633Z,25.30
2018-09-01T17:41:30.856Z,26.17
2018-09-01T17:43:59.076Z,26.17
2018-09-01T17:46:27.287Z,24.03
2018-09-01T17:48:55.527Z,27.43
2018-09-01T17:51:23.798Z,26.60
2018-09-01T17:53:52.020Z,26.40
2018-09-01T17:56:20.506Z,26.30
2018-09-01T17:58:48.727Z,27.17
2018-09-01T18:01:18.352Z,27.83
2018-09-01T18:03:46.619Z,27.40
2018-09-01T18:06:14.840Z,24.87
2018-09-01T18:08:43.094Z,26.33
2018-09-01T18:11:11.309Z,28.57
2018-09-01T18:13:39.532Z,23.93
2018-09-01T18:16:07.820Z,25.27
2018-09-01T18:18:36.072Z,24.80
2018-09-01T18:21:04.323Z,23.13
2018-09-01T18:23:32.539Z,23.57
2018-09-01T18:26:00.834Z,22.83
2018-09-01T18:28:29.095Z,23.00
2018-09-01T18:30:57.336Z,22.87
2018-09-01T18:33:25.564Z,22.60
2018-09-01T18:35:53.894Z,23.87
2018-09-01T18:38:22.180Z,24.43
2018-09-01T18:40:50.492Z,25.17
2018-09-01T18:43:18.695Z,23.40
2018-09-01T18:45:46.939Z,25.23
2018-09-01T18:48:15.159Z,23.13
2018-09-01T18:50:43.414Z,21.67
2018-09-01T18:53:11.744Z,22.50
2018-09-01T18:55:40.024Z,22.50
2018-09-01T18:58:08.285Z,23.63
2018-09-01T19:00:36.536Z,21.60
2018-09-01T19:03:06.004Z,23.73
2018-09-01T19:05:34.328Z,24.10
2018-09-01T19:08:02.576Z,24.13
2018-09-01T19:10:30.827Z,23.63
2018-09-01T19:12:59.043Z,22.77
2018-09-01T19:15:27.340Z,23.30
2018-09-01T19:17:55.606Z,23.43
2018-09-01T19:20:23.880Z,23.67
2018-09-01T19:22:52.137Z,23.70
2018-09-01T19:25:20.379Z,25.37
2018-09-01T19:27:48.707Z,21.27
2018-09-01T19:30:16.997Z,21.97
2018-09-01T19:32:45.257Z,22.33
2018-09-01T19:35:13.599Z,23.07
2018-09-01T19:37:41.837Z,22.87
2018-09-01T19:40:10.471Z,22.53
2018-09-01T19:42:38.771Z,21.23
2018-09-01T19:45:07.219Z,22.00
2018-09-01T19:47:35.445Z,22.50
2018-09-01T19:50:03.705Z,24.37
2018-09-01T19:52:31.941Z,22.73
2018-09-01T19:55:00.224Z,23.47
2018-09-01T19:57:28.477Z,22.77
2018-09-01T19:59:56.714Z,22.87
2018-09-01T20:02:24.952Z,26.33
2018-09-01T20:04:53.254Z,24.40
2018-09-01T20:07:21.504Z,23.20
2018-09-01T20:09:49.735Z,24.70
2018-09-01T20:12:17.950Z,22.40
2018-09-01T20:14:46.891Z,24.10
2018-09-01T20:17:15.131Z,25.30
2018-09-01T20:19:43.389Z,25.07
2018-09-01T20:22:11.627Z,23.83
2018-09-01T20:24:39.860Z,24.93
2018-09-01T20:27:08.108Z,27.97
2018-09-01T20:29:36.328Z,26.80
2018-09-01T20:32:04.622Z,27.33
2018-09-01T20:34:32.866Z,28.00
2018-09-01T20:37:01.120Z,28.07
2018-09-01T20:39:29.491Z,31.20
2018-09-01T20:41:57.763Z,30.90
2018-09-01T20:44:26.034Z,31.63
2018-09-01T20:46:54.242Z,29.60
2018-09-01T20:49:22.477Z,28.73
2018-09-01T20:51:50.839Z,29.60
2018-09-01T20:54:19.083Z,28.10
2018-09-01T20:56:47.405Z,33.73
2018-09-01T20:59:15.641Z,31.73
2018-09-01T21:01:43.872Z,33.80
2018-09-01T21:04:12.225Z,30.43
2018-09-01T21:06:40.841Z,30.63
2018-09-01T21:09:10.071Z,31.73
2018-09-01T21:11:38.420Z,33.13
2018-09-01T21:14:06.673Z,32.03
2018-09-01T21:16:35.132Z,33.00
2018-09-01T21:19:03.388Z,28.73
2018-09-01T21:21:31.794Z,32.23
2018-09-01T21:24:00.050Z,30.87
2018-09-01T21:26:29.189Z,32.10
2018-09-01T21:28:57.455Z,29.83
2018-09-01T21:31:25.651Z,32.07
2018-09-01T21:33:53.903Z,31.33
2018-09-01T21:36:22.255Z,30.53
2018-09-01T21:38:50.471Z,32.60
2018-09-01T21:41:18.683Z,34.07
2018-09-01T21:43:47.021Z,33.17
2018-09-01T21:46:15.366Z,31.00
2018-09-01T21:48:44.057Z,29.90
2018-09-01T21:51:13.862Z,30.07
2018-09-01T21:53:42.265Z,30.40
2018-09-01T21:56:10.729Z,29.63
2018-09-01T21:58:39.023Z,30.40
2018-09-01T22:01:12.808Z,30.90
2018-09-01T22:03:47.810Z,30.93
2018-09-01T22:06:17.048Z,30.47
2018-09-01T22:08:45.286Z,27.60
2018-09-01T22:11:13.650Z,30.60
2018-09-01T22:13:42.303Z,29.37
2018-09-01T22:16:10.600Z,27.93
2018-09-01T22:18:38.857Z,27.47
2018-09-01T22:21:07.328Z,30.67
2018-09-01T22:23:35.740Z,30.13
2018-09-01T22:26:03.976Z,29.60
2018-09-01T22:28:32.491Z,28.80
2018-09-01T22:31:00.728Z,28.87
2018-09-01T22:33:28.984Z,28.73
2018-09-01T22:35:57.251Z,30.03
2018-09-01T22:38:25.504Z,29.10
2018-09-01T22:40:54.482Z,29.07
2018-09-01T22:43:22.788Z,29.47
2018-09-01T22:45:51.029Z,27.57
2018-09-01T22:48:19.284Z,28.10
2018-09-01T22:50:47.584Z,27.80
2018-09-01T22:53:15.857Z,28.80
2018-09-01T22:55:44.091Z,26.87
2018-09-01T22:58:12.304Z,27.03
2018-09-01T23:00:40.534Z,25.73
2018-09-01T23:03:08.781Z,25.87
2018-09-01T23:05:37.043Z,25.80
2018-09-01T23:08:05.320Z,25.83
2018-09-01T23:10:33.588Z,25.00
2018-09-01T23:13:01.851Z,26.93
2018-09-01T23:15:30.074Z,29.10
2018-09-01T23:17:58.346Z,24.37
2018-09-01T23:20:26.576Z,24.20
2018-09-01T23:22:54.811Z,25.17
2018-09-01T23:25:23.057Z,25.03
2018-09-01T23:27:51.300Z,27.10
2018-09-01T23:30:19.634Z,26.97
2018-09-01T23:32:47.889Z,26.43
2018-09-01T23:35:16.120Z,26.97
2018-09-01T23:37:44.343Z,25.73
2018-09-01T23:40:12.623Z,26.37
2018-09-01T23:42:40.896Z,26.63
2018-09-01T23:45:09.132Z,26.87
2018-09-01T23:47:37.356Z,26.33
2018-09-01T23:50:05.971Z,25.50
2018-09-01T23:52:34.198Z,25.03
2018-09-01T23:55:02.498Z,24.30
2018-09-01T23:57:30.743Z,26.27
2018-09-01T23:59:58.987Z,27.73
